sensor_id;sensor_type;location;lat;lon;timestamp;P1;durP1;ratioP1;P2;durP2;ratioP2
62709;SDS011;48770;51.624;5.886;2023-02-28T00:00:25;0.90;;;0.57;;
62709;SDS011;48770;51.624;5.886;2023-02-28T00:02:51;0.90;;;0.73;;
62709;SDS011;48770;51.624;5.886;2023-02-28T00:05:17;0.63;;;0.52;;
62709;SDS011;48770;51.624;5.886;2023-02-28T00:07:45;0.50;;;0.40;;
62709;SDS011;48770;51.624;5.886;2023-02-28T00:10:13;0.47;;;0.45;;
62709;SDS011;48770;51.624;5.886;2023-02-28T00:12:40;1.45;;;0.63;;
62709;SDS011;48770;51.624;5.886;2023-02-28T00:15:06;1.10;;;0.70;;
62709;SDS011;48770;51.624;5.886;2023-02-28T00:17:33;1.60;;;0.52;;
62709;SDS011;48770;51.624;5.886;2023-02-28T00:19:59;0.85;;;0.63;;
62709;SDS011;48770;51.624;5.886;2023-02-28T00:22:28;0.73;;;0.60;;
62709;SDS011;48770;51.624;5.886;2023-02-28T00:24:53;1.23;;;0.70;;
62709;SDS011;48770;51.624;5.886;2023-02-28T00:27:19;0.95;;;0.60;;
62709;SDS011;48770;51.624;5.886;2023-02-28T00:29:45;1.00;;;0.50;;
62709;SDS011;48770;51.624;5.886;2023-02-28T00:32:11;0.82;;;0.60;;
62709;SDS011;48770;51.624;5.886;2023-02-28T00:34:36;0.95;;;0.50;;
62709;SDS011;48770;51.624;5.886;2023-02-28T00:37:06;0.80;;;0.60;;
62709;SDS011;48770;51.624;5.886;2023-02-28T00:39:33;1.50;;;0.60;;
62709;SDS011;48770;51.624;5.886;2023-02-28T00:42:00;0.40;;;0.40;;
62709;SDS011;48770;51.624;5.886;2023-02-28T00:44:25;1.02;;;0.60;;
62709;SDS011;48770;51.624;5.886;2023-02-28T00:46:50;0.80;;;0.70;;
62709;SDS011;48770;51.624;5.886;2023-02-28T00:49:16;0.70;;;0.45;;
62709;SDS011;48770;51.624;5.886;2023-02-28T00:51:42;0.68;;;0.50;;
62709;SDS011;48770;51.624;5.886;2023-02-28T00:54:07;0.70;;;0.63;;
62709;SDS011;48770;51.624;5.886;2023-02-28T00:56:33;0.60;;;0.52;;
62709;SDS011;48770;51.624;5.886;2023-02-28T00:58:58;1.27;;;0.60;;
62709;SDS011;48770;51.624;5.886;2023-02-28T01:01:23;1.17;;;0.43;;
62709;SDS011;48770;51.624;5.886;2023-02-28T01:03:49;1.02;;;0.68;;
62709;SDS011;48770;51.624;5.886;2023-02-28T01:06:14;0.70;;;0.52;;
62709;SDS011;48770;51.624;5.886;2023-02-28T01:08:39;1.85;;;0.40;;
62709;SDS011;48770;51.624;5.886;2023-02-28T01:11:09;0.95;;;0.60;;
62709;SDS011;48770;51.624;5.886;2023-02-28T01:13:35;0.57;;;0.50;;
62709;SDS011;48770;51.624;5.886;2023-02-28T01:16:01;0.80;;;0.50;;
62709;SDS011;48770;51.624;5.886;2023-02-28T01:18:26;0.63;;;0.50;;
62709;SDS011;48770;51.624;5.886;2023-02-28T01:20:51;0.70;;;0.60;;
62709;SDS011;48770;51.624;5.886;2023-02-28T01:23:18;0.80;;;0.63;;
62709;SDS011;48770;51.624;5.886;2023-02-28T01:25:46;0.90;;;0.70;;
62709;SDS011;48770;51.624;5.886;2023-02-28T01:28:11;0.57;;;0.50;;
62709;SDS011;48770;51.624;5.886;2023-02-28T01:30:37;1.23;;;0.77;;
62709;SDS011;48770;51.624;5.886;2023-02-28T01:33:02;0.52;;;0.50;;
62709;SDS011;48770;51.624;5.886;2023-02-28T01:35:27;0.68;;;0.50;;
62709;SDS011;48770;51.624;5.886;2023-02-28T01:37:53;0.90;;;0.50;;
62709;SDS011;48770;51.624;5.886;2023-02-28T01:40:18;0.73;;;0.68;;
62709;SDS011;48770;51.624;5.886;2023-02-28T01:42:44;0.80;;;0.60;;
62709;SDS011;48770;51.624;5.886;2023-02-28T01:45:16;0.70;;;0.57;;
62709;SDS011;48770;51.624;5.886;2023-02-28T01:47:47;0.68;;;0.50;;
62709;SDS011;48770;51.624;5.886;2023-02-28T01:50:17;0.63;;;0.50;;
62709;SDS011;48770;51.624;5.886;2023-02-28T01:52:45;0.63;;;0.52;;
62709;SDS011;48770;51.624;5.886;2023-02-28T01:55:13;0.93;;;0.55;;
62709;SDS011;48770;51.624;5.886;2023-02-28T01:57:45;1.20;;;0.70;;
62709;SDS011;48770;51.624;5.886;2023-02-28T02:02:43;1.10;;;0.60;;
62709;SDS011;48770;51.624;5.886;2023-02-28T02:05:15;0.80;;;0.47;;
62709;SDS011;48770;51.624;5.886;2023-02-28T02:07:46;0.65;;;0.50;;
62709;SDS011;48770;51.624;5.886;2023-02-28T02:10:17;0.52;;;0.50;;
62709;SDS011;48770;51.624;5.886;2023-02-28T02:12:59;0.90;;;0.60;;
62709;SDS011;48770;51.624;5.886;2023-02-28T02:15:40;0.70;;;0.52;;
62709;SDS011;48770;51.624;5.886;2023-02-28T02:18:16;0.60;;;0.40;;
62709;SDS011;48770;51.624;5.886;2023-02-28T02:26:34;0.57;;;0.50;;
62709;SDS011;48770;51.624;5.886;2023-02-28T02:34:56;1.38;;;0.65;;
62709;SDS011;48770;51.624;5.886;2023-02-28T02:40:17;0.60;;;0.50;;
62709;SDS011;48770;51.624;5.886;2023-02-28T02:46:34;0.55;;;0.40;;
62709;SDS011;48770;51.624;5.886;2023-02-28T02:49:05;1.15;;;0.50;;
62709;SDS011;48770;51.624;5.886;2023-02-28T02:51:34;0.50;;;0.50;;
62709;SDS011;48770;51.624;5.886;2023-02-28T02:54:03;0.88;;;0.47;;
62709;SDS011;48770;51.624;5.886;2023-02-28T02:56:33;0.93;;;0.50;;
62709;SDS011;48770;51.624;5.886;2023-02-28T02:59:01;1.25;;;0.73;;
62709;SDS011;48770;51.624;5.886;2023-02-28T03:01:30;0.52;;;0.50;;
62709;SDS011;48770;51.624;5.886;2023-02-28T03:03:58;0.70;;;0.47;;
62709;SDS011;48770;51.624;5.886;2023-02-28T03:06:27;0.68;;;0.50;;
62709;SDS011;48770;51.624;5.886;2023-02-28T03:08:52;0.93;;;0.60;;
62709;SDS011;48770;51.624;5.886;2023-02-28T03:11:18;0.32;;;0.30;;
62709;SDS011;48770;51.624;5.886;2023-02-28T03:18:51;0.68;;;0.50;;
62709;SDS011;48770;51.624;5.886;2023-02-28T03:24:25;0.40;;;0.40;;
62709;SDS011;48770;51.624;5.886;2023-02-28T03:27:39;0.93;;;0.57;;
62709;SDS011;48770;51.624;5.886;2023-02-28T03:30:31;0.90;;;0.70;;
62709;SDS011;48770;51.624;5.886;2023-02-28T03:33:08;0.90;;;0.52;;
62709;SDS011;48770;51.624;5.886;2023-02-28T03:35:38;0.55;;;0.43;;
62709;SDS011;48770;51.624;5.886;2023-02-28T03:40:47;0.65;;;0.40;;
62709;SDS011;48770;51.624;5.886;2023-02-28T03:43:18;1.42;;;0.60;;
62709;SDS011;48770;51.624;5.886;2023-02-28T03:45:47;0.70;;;0.50;;
62709;SDS011;48770;51.624;5.886;2023-02-28T03:48:19;1.30;;;0.60;;
62709;SDS011;48770;51.624;5.886;2023-02-28T03:50:49;0.82;;;0.68;;
62709;SDS011;48770;51.624;5.886;2023-02-28T03:53:25;0.57;;;0.40;;
62709;SDS011;48770;51.624;5.886;2023-02-28T03:55:56;1.00;;;0.60;;
62709;SDS011;48770;51.624;5.886;2023-02-28T04:01:15;0.98;;;0.68;;
62709;SDS011;48770;51.624;5.886;2023-02-28T04:03:49;0.47;;;0.40;;
62709;SDS011;48770;51.624;5.886;2023-02-28T04:06:16;1.10;;;0.60;;
62709;SDS011;48770;51.624;5.886;2023-02-28T04:08:44;0.50;;;0.43;;
62709;SDS011;48770;51.624;5.886;2023-02-28T04:11:16;0.80;;;0.50;;
62709;SDS011;48770;51.624;5.886;2023-02-28T04:13:48;0.50;;;0.40;;
62709;SDS011;48770;51.624;5.886;2023-02-28T04:16:14;0.55;;;0.50;;
62709;SDS011;48770;51.624;5.886;2023-02-28T04:18:39;0.85;;;0.60;;
62709;SDS011;48770;51.624;5.886;2023-02-28T04:21:05;1.15;;;0.63;;
62709;SDS011;48770;51.624;5.886;2023-02-28T04:23:31;0.40;;;0.40;;
62709;SDS011;48770;51.624;5.886;2023-02-28T04:25:57;0.60;;;0.43;;
62709;SDS011;48770;51.624;5.886;2023-02-28T04:28:23;0.32;;;0.30;;
62709;SDS011;48770;51.624;5.886;2023-02-28T04:30:54;1.00;;;0.60;;
62709;SDS011;48770;51.624;5.886;2023-02-28T04:33:20;0.35;;;0.35;;
62709;SDS011;48770;51.624;5.886;2023-02-28T04:35:45;0.77;;;0.50;;
62709;SDS011;48770;51.624;5.886;2023-02-28T04:38:11;0.60;;;0.40;;
62709;SDS011;48770;51.624;5.886;2023-02-28T04:40:36;1.08;;;0.40;;
62709;SDS011;48770;51.624;5.886;2023-02-28T04:43:01;0.47;;;0.30;;
62709;SDS011;48770;51.624;5.886;2023-02-28T04:45:28;0.80;;;0.50;;
62709;SDS011;48770;51.624;5.886;2023-02-28T04:47:57;0.52;;;0.40;;
62709;SDS011;48770;51.624;5.886;2023-02-28T04:50:22;0.40;;;0.40;;
62709;SDS011;48770;51.624;5.886;2023-02-28T04:52:47;0.40;;;0.30;;
62709;SDS011;48770;51.624;5.886;2023-02-28T04:55:13;0.40;;;0.30;;
62709;SDS011;48770;51.624;5.886;2023-02-28T04:57:38;1.13;;;0.55;;
62709;SDS011;48770;51.624;5.886;2023-02-28T05:00:03;0.75;;;0.47;;
62709;SDS011;48770;51.624;5.886;2023-02-28T05:02:34;0.85;;;0.57;;
62709;SDS011;48770;51.624;5.886;2023-02-28T05:05:00;0.73;;;0.43;;
62709;SDS011;48770;51.624;5.886;2023-02-28T05:07:25;0.40;;;0.30;;
62709;SDS011;48770;51.624;5.886;2023-02-28T05:09:50;0.52;;;0.38;;
62709;SDS011;48770;51.624;5.886;2023-02-28T05:12:16;0.35;;;0.28;;
62709;SDS011;48770;51.624;5.886;2023-02-28T05:14:41;0.60;;;0.40;;
62709;SDS011;48770;51.624;5.886;2023-02-28T05:17:07;1.08;;;0.52;;
62709;SDS011;48770;51.624;5.886;2023-02-28T05:19:33;0.57;;;0.40;;
62709;SDS011;48770;51.624;5.886;2023-02-28T05:21:59;0.80;;;0.50;;
62709;SDS011;48770;51.624;5.886;2023-02-28T05:24:24;0.50;;;0.50;;
62709;SDS011;48770;51.624;5.886;2023-02-28T05:26:50;0.52;;;0.43;;
62709;SDS011;48770;51.624;5.886;2023-02-28T05:29:17;0.75;;;0.52;;
62709;SDS011;48770;51.624;5.886;2023-02-28T05:31:43;0.90;;;0.55;;
62709;SDS011;48770;51.624;5.886;2023-02-28T05:34:08;0.45;;;0.32;;
62709;SDS011;48770;51.624;5.886;2023-02-28T05:36:36;0.50;;;0.40;;
62709;SDS011;48770;51.624;5.886;2023-02-28T05:39:01;0.38;;;0.32;;
62709;SDS011;48770;51.624;5.886;2023-02-28T05:41:28;0.57;;;0.52;;
62709;SDS011;48770;51.624;5.886;2023-02-28T05:43:53;0.55;;;0.50;;
62709;SDS011;48770;51.624;5.886;2023-02-28T05:46:19;0.50;;;0.47;;
62709;SDS011;48770;51.624;5.886;2023-02-28T05:48:46;0.60;;;0.40;;
62709;SDS011;48770;51.624;5.886;2023-02-28T05:51:12;0.40;;;0.30;;
62709;SDS011;48770;51.624;5.886;2023-02-28T05:53:38;0.45;;;0.40;;
62709;SDS011;48770;51.624;5.886;2023-02-28T05:56:03;0.80;;;0.38;;
62709;SDS011;48770;51.624;5.886;2023-02-28T05:58:29;0.55;;;0.30;;
62709;SDS011;48770;51.624;5.886;2023-02-28T06:00:56;0.90;;;0.50;;
62709;SDS011;48770;51.624;5.886;2023-02-28T06:03:22;0.40;;;0.35;;
62709;SDS011;48770;51.624;5.886;2023-02-28T06:05:48;0.85;;;0.45;;
62709;SDS011;48770;51.624;5.886;2023-02-28T06:08:13;0.60;;;0.50;;
62709;SDS011;48770;51.624;5.886;2023-02-28T06:10:38;0.55;;;0.40;;
62709;SDS011;48770;51.624;5.886;2023-02-28T06:13:04;0.50;;;0.40;;
62709;SDS011;48770;51.624;5.886;2023-02-28T06:15:30;0.52;;;0.43;;
62709;SDS011;48770;51.624;5.886;2023-02-28T06:17:56;0.38;;;0.38;;
62709;SDS011;48770;51.624;5.886;2023-02-28T06:20:21;0.80;;;0.47;;
62709;SDS011;48770;51.624;5.886;2023-02-28T06:22:48;0.85;;;0.50;;
62709;SDS011;48770;51.624;5.886;2023-02-28T06:25:15;0.93;;;0.55;;
62709;SDS011;48770;51.624;5.886;2023-02-28T06:27:40;0.50;;;0.50;;
62709;SDS011;48770;51.624;5.886;2023-02-28T06:30:06;0.40;;;0.30;;
62709;SDS011;48770;51.624;5.886;2023-02-28T06:32:32;0.60;;;0.50;;
62709;SDS011;48770;51.624;5.886;2023-02-28T06:34:57;0.43;;;0.40;;
62709;SDS011;48770;51.624;5.886;2023-02-28T06:37:23;0.90;;;0.50;;
62709;SDS011;48770;51.624;5.886;2023-02-28T06:39:51;0.32;;;0.30;;
62709;SDS011;48770;51.624;5.886;2023-02-28T06:42:16;0.60;;;0.50;;
62709;SDS011;48770;51.624;5.886;2023-02-28T06:44:41;0.47;;;0.30;;
62709;SDS011;48770;51.624;5.886;2023-02-28T06:47:07;0.70;;;0.45;;
62709;SDS011;48770;51.624;5.886;2023-02-28T06:49:34;0.65;;;0.40;;
62709;SDS011;48770;51.624;5.886;2023-02-28T06:52:00;0.80;;;0.60;;
62709;SDS011;48770;51.624;5.886;2023-02-28T06:54:26;0.30;;;0.30;;
62709;SDS011;48770;51.624;5.886;2023-02-28T06:56:52;0.85;;;0.35;;
62709;SDS011;48770;51.624;5.886;2023-02-28T06:59:19;0.50;;;0.50;;
62709;SDS011;48770;51.624;5.886;2023-02-28T07:01:44;0.70;;;0.50;;
62709;SDS011;48770;51.624;5.886;2023-02-28T07:04:10;1.02;;;0.43;;
62709;SDS011;48770;51.624;5.886;2023-02-28T07:06:35;0.80;;;0.50;;
62709;SDS011;48770;51.624;5.886;2023-02-28T07:09:01;0.57;;;0.45;;
62709;SDS011;48770;51.624;5.886;2023-02-28T07:11:27;1.00;;;0.50;;
62709;SDS011;48770;51.624;5.886;2023-02-28T07:13:53;0.85;;;0.50;;
62709;SDS011;48770;51.624;5.886;2023-02-28T07:16:19;0.50;;;0.47;;
62709;SDS011;48770;51.624;5.886;2023-02-28T07:18:44;0.90;;;0.63;;
62709;SDS011;48770;51.624;5.886;2023-02-28T07:21:10;0.55;;;0.45;;
62709;SDS011;48770;51.624;5.886;2023-02-28T07:23:38;1.00;;;0.50;;
62709;SDS011;48770;51.624;5.886;2023-02-28T07:26:04;0.90;;;0.70;;
62709;SDS011;48770;51.624;5.886;2023-02-28T07:28:31;0.85;;;0.60;;
62709;SDS011;48770;51.624;5.886;2023-02-28T07:30:56;0.75;;;0.50;;
62709;SDS011;48770;51.624;5.886;2023-02-28T07:33:22;0.93;;;0.60;;
62709;SDS011;48770;51.624;5.886;2023-02-28T07:35:48;0.40;;;0.40;;
62709;SDS011;48770;51.624;5.886;2023-02-28T07:38:14;0.52;;;0.45;;
62709;SDS011;48770;51.624;5.886;2023-02-28T07:40:40;0.60;;;0.40;;
62709;SDS011;48770;51.624;5.886;2023-02-28T07:43:06;1.30;;;0.57;;
62709;SDS011;48770;51.624;5.886;2023-02-28T07:45:31;0.60;;;0.50;;
62709;SDS011;48770;51.624;5.886;2023-02-28T07:47:59;0.90;;;0.60;;
62709;SDS011;48770;51.624;5.886;2023-02-28T07:50:25;0.75;;;0.60;;
62709;SDS011;48770;51.624;5.886;2023-02-28T07:52:50;0.63;;;0.60;;
62709;SDS011;48770;51.624;5.886;2023-02-28T07:55:15;0.77;;;0.63;;
62709;SDS011;48770;51.624;5.886;2023-02-28T07:57:41;0.75;;;0.70;;
62709;SDS011;48770;51.624;5.886;2023-02-28T08:00:09;1.00;;;0.70;;
62709;SDS011;48770;51.624;5.886;2023-02-28T08:02:35;0.50;;;0.50;;
62709;SDS011;48770;51.624;5.886;2023-02-28T08:05:01;0.82;;;0.50;;
62709;SDS011;48770;51.624;5.886;2023-02-28T08:07:27;0.95;;;0.40;;
62709;SDS011;48770;51.624;5.886;2023-02-28T08:09:52;0.50;;;0.50;;
62709;SDS011;48770;51.624;5.886;2023-02-28T08:12:18;0.82;;;0.57;;
62709;SDS011;48770;51.624;5.886;2023-02-28T08:14:43;0.63;;;0.50;;
62709;SDS011;48770;51.624;5.886;2023-02-28T08:17:09;0.73;;;0.50;;
62709;SDS011;48770;51.624;5.886;2023-02-28T08:19:35;1.02;;;0.50;;
62709;SDS011;48770;51.624;5.886;2023-02-28T08:22:01;0.90;;;0.45;;
62709;SDS011;48770;51.624;5.886;2023-02-28T08:24:26;1.75;;;0.63;;
62709;SDS011;48770;51.624;5.886;2023-02-28T08:26:51;0.77;;;0.60;;
62709;SDS011;48770;51.624;5.886;2023-02-28T08:29:17;0.80;;;0.65;;
62709;SDS011;48770;51.624;5.886;2023-02-28T08:31:42;0.75;;;0.40;;
62709;SDS011;48770;51.624;5.886;2023-02-28T08:34:08;2.22;;;0.50;;
62709;SDS011;48770;51.624;5.886;2023-02-28T08:36:35;0.80;;;0.47;;
62709;SDS011;48770;51.624;5.886;2023-02-28T08:39:01;0.55;;;0.50;;
62709;SDS011;48770;51.624;5.886;2023-02-28T08:41:27;0.60;;;0.40;;
62709;SDS011;48770;51.624;5.886;2023-02-28T08:43:53;0.90;;;0.47;;
62709;SDS011;48770;51.624;5.886;2023-02-28T08:46:18;0.70;;;0.50;;
62709;SDS011;48770;51.624;5.886;2023-02-28T08:48:44;0.63;;;0.50;;
62709;SDS011;48770;51.624;5.886;2023-02-28T08:51:11;0.75;;;0.57;;
62709;SDS011;48770;51.624;5.886;2023-02-28T08:53:43;1.10;;;0.60;;
62709;SDS011;48770;51.624;5.886;2023-02-28T08:56:10;1.13;;;0.50;;
62709;SDS011;48770;51.624;5.886;2023-02-28T08:58:37;1.10;;;0.80;;
62709;SDS011;48770;51.624;5.886;2023-02-28T09:01:08;0.73;;;0.40;;
62709;SDS011;48770;51.624;5.886;2023-02-28T09:03:35;0.40;;;0.28;;
62709;SDS011;48770;51.624;5.886;2023-02-28T09:06:00;0.68;;;0.38;;
62709;SDS011;48770;51.624;5.886;2023-02-28T09:08:28;0.50;;;0.30;;
62709;SDS011;48770;51.624;5.886;2023-02-28T09:10:55;0.70;;;0.63;;
62709;SDS011;48770;51.624;5.886;2023-02-28T09:13:22;0.55;;;0.40;;
62709;SDS011;48770;51.624;5.886;2023-02-28T09:15:49;0.50;;;0.47;;
62709;SDS011;48770;51.624;5.886;2023-02-28T09:18:15;0.50;;;0.35;;
62709;SDS011;48770;51.624;5.886;2023-02-28T09:20:41;0.98;;;0.40;;
62709;SDS011;48770;51.624;5.886;2023-02-28T09:23:07;0.50;;;0.40;;
62709;SDS011;48770;51.624;5.886;2023-02-28T09:25:33;0.88;;;0.57;;
62709;SDS011;48770;51.624;5.886;2023-02-28T09:27:59;0.75;;;0.50;;
62709;SDS011;48770;51.624;5.886;2023-02-28T09:30:25;0.80;;;0.40;;
62709;SDS011;48770;51.624;5.886;2023-02-28T09:32:50;0.75;;;0.30;;
62709;SDS011;48770;51.624;5.886;2023-02-28T09:35:17;0.40;;;0.30;;
62709;SDS011;48770;51.624;5.886;2023-02-28T09:37:43;1.33;;;0.50;;
62709;SDS011;48770;51.624;5.886;2023-02-28T09:40:11;0.90;;;0.40;;
62709;SDS011;48770;51.624;5.886;2023-02-28T09:42:37;0.50;;;0.40;;
62709;SDS011;48770;51.624;5.886;2023-02-28T09:45:06;0.35;;;0.30;;
62709;SDS011;48770;51.624;5.886;2023-02-28T09:47:43;0.32;;;0.30;;
62709;SDS011;48770;51.624;5.886;2023-02-28T09:50:16;1.02;;;0.45;;
62709;SDS011;48770;51.624;5.886;2023-02-28T09:52:48;0.30;;;0.30;;
62709;SDS011;48770;51.624;5.886;2023-02-28T09:57:58;0.65;;;0.30;;
62709;SDS011;48770;51.624;5.886;2023-02-28T10:06:02;0.40;;;0.30;;
62709;SDS011;48770;51.624;5.886;2023-02-28T10:08:37;0.50;;;0.30;;
62709;SDS011;48770;51.624;5.886;2023-02-28T10:11:10;0.50;;;0.40;;
62709;SDS011;48770;51.624;5.886;2023-02-28T10:16:06;0.57;;;0.30;;
62709;SDS011;48770;51.624;5.886;2023-02-28T10:21:30;0.28;;;0.20;;
62709;SDS011;48770;51.624;5.886;2023-02-28T10:24:23;0.77;;;0.20;;
62709;SDS011;48770;51.624;5.886;2023-02-28T10:29:49;0.52;;;0.30;;
62709;SDS011;48770;51.624;5.886;2023-02-28T10:32:23;0.43;;;0.20;;
62709;SDS011;48770;51.624;5.886;2023-02-28T10:35:00;0.20;;;0.10;;
62709;SDS011;48770;51.624;5.886;2023-02-28T10:37:32;0.50;;;0.30;;
62709;SDS011;48770;51.624;5.886;2023-02-28T10:40:03;0.30;;;0.30;;
62709;SDS011;48770;51.624;5.886;2023-02-28T10:42:31;0.28;;;0.20;;
62709;SDS011;48770;51.624;5.886;2023-02-28T10:45:10;0.60;;;0.30;;
62709;SDS011;48770;51.624;5.886;2023-02-28T10:47:57;0.40;;;0.20;;
62709;SDS011;48770;51.624;5.886;2023-02-28T10:56:23;0.20;;;0.20;;
62709;SDS011;48770;51.624;5.886;2023-02-28T10:59:03;0.38;;;0.20;;
62709;SDS011;48770;51.624;5.886;2023-02-28T11:01:44;0.20;;;0.20;;
62709;SDS011;48770;51.624;5.886;2023-02-28T11:06:42;0.43;;;0.30;;
62709;SDS011;48770;51.624;5.886;2023-02-28T11:09:22;0.52;;;0.40;;
62709;SDS011;48770;51.624;5.886;2023-02-28T11:11:54;0.10;;;0.10;;
62709;SDS011;48770;51.624;5.886;2023-02-28T11:14:20;0.22;;;0.20;;
62709;SDS011;48770;51.624;5.886;2023-02-28T11:16:49;0.60;;;0.22;;
62709;SDS011;48770;51.624;5.886;2023-02-28T11:19:35;0.75;;;0.30;;
62709;SDS011;48770;51.624;5.886;2023-02-28T11:22:10;0.45;;;0.20;;
62709;SDS011;48770;51.624;5.886;2023-02-28T11:24:43;0.28;;;0.15;;
62709;SDS011;48770;51.624;5.886;2023-02-28T11:32:51;0.22;;;0.20;;
62709;SDS011;48770;51.624;5.886;2023-02-28T11:38:00;2.13;;;0.40;;
62709;SDS011;48770;51.624;5.886;2023-02-28T11:51:15;0.20;;;0.20;;
62709;SDS011;48770;51.624;5.886;2023-02-28T11:54:02;1.95;;;0.30;;
62709;SDS011;48770;51.624;5.886;2023-02-28T11:56:57;0.70;;;0.40;;
62709;SDS011;48770;51.624;5.886;2023-02-28T11:59:51;0.50;;;0.28;;
62709;SDS011;48770;51.624;5.886;2023-02-28T12:02:35;0.30;;;0.28;;
62709;SDS011;48770;51.624;5.886;2023-02-28T12:27:25;0.40;;;0.20;;
62709;SDS011;48770;51.624;5.886;2023-02-28T12:29:58;1.20;;;0.32;;
62709;SDS011;48770;51.624;5.886;2023-02-28T12:35:10;0.22;;;0.17;;
62709;SDS011;48770;51.624;5.886;2023-02-28T12:38:01;0.68;;;0.35;;
62709;SDS011;48770;51.624;5.886;2023-02-28T12:40:31;0.60;;;0.20;;
62709;SDS011;48770;51.624;5.886;2023-02-28T12:43:07;0.22;;;0.20;;
62709;SDS011;48770;51.624;5.886;2023-02-28T12:45:50;0.60;;;0.20;;
62709;SDS011;48770;51.624;5.886;2023-02-28T12:48:40;0.82;;;0.28;;
62709;SDS011;48770;51.624;5.886;2023-02-28T12:51:09;0.40;;;0.30;;
62709;SDS011;48770;51.624;5.886;2023-02-28T12:59:50;0.40;;;0.20;;
62709;SDS011;48770;51.624;5.886;2023-02-28T13:10:20;0.20;;;0.15;;
62709;SDS011;48770;51.624;5.886;2023-02-28T13:12:52;0.40;;;0.20;;
62709;SDS011;48770;51.624;5.886;2023-02-28T13:15:24;0.38;;;0.30;;
62709;SDS011;48770;51.624;5.886;2023-02-28T13:20:21;0.20;;;0.20;;
62709;SDS011;48770;51.624;5.886;2023-02-28T13:22:50;0.25;;;0.10;;
62709;SDS011;48770;51.624;5.886;2023-02-28T13:27:46;0.30;;;0.20;;
62709;SDS011;48770;51.624;5.886;2023-02-28T13:33:34;0.40;;;0.10;;
62709;SDS011;48770;51.624;5.886;2023-02-28T13:46:27;0.30;;;0.10;;
62709;SDS011;48770;51.624;5.886;2023-02-28T13:48:52;0.30;;;0.20;;
62709;SDS011;48770;51.624;5.886;2023-02-28T13:54:06;0.70;;;0.20;;
62709;SDS011;48770;51.624;5.886;2023-02-28T13:59:40;0.38;;;0.10;;
62709;SDS011;48770;51.624;5.886;2023-02-28T14:02:28;0.28;;;0.20;;
62709;SDS011;48770;51.624;5.886;2023-02-28T14:07:32;0.30;;;0.10;;
62709;SDS011;48770;51.624;5.886;2023-02-28T14:10:05;0.22;;;0.10;;
62709;SDS011;48770;51.624;5.886;2023-02-28T14:16:09;0.20;;;0.10;;
62709;SDS011;48770;51.624;5.886;2023-02-28T14:18:21;0.32;;;0.22;;
62709;SDS011;48770;51.624;5.886;2023-02-28T14:20:47;0.45;;;0.10;;
62709;SDS011;48770;51.624;5.886;2023-02-28T14:23:34;0.15;;;0.10;;
62709;SDS011;48770;51.624;5.886;2023-02-28T14:29:25;0.05;;;0.05;;
62709;SDS011;48770;51.624;5.886;2023-02-28T14:37:39;1.38;;;0.20;;
62709;SDS011;48770;51.624;5.886;2023-02-28T14:40:15;0.15;;;0.10;;
62709;SDS011;48770;51.624;5.886;2023-02-28T14:42:54;0.20;;;0.10;;
62709;SDS011;48770;51.624;5.886;2023-02-28T14:45:31;0.10;;;0.10;;
62709;SDS011;48770;51.624;5.886;2023-02-28T14:47:59;0.20;;;0.13;;
62709;SDS011;48770;51.624;5.886;2023-02-28T14:50:27;0.45;;;0.20;;
62709;SDS011;48770;51.624;5.886;2023-02-28T14:52:56;0.20;;;0.10;;
62709;SDS011;48770;51.624;5.886;2023-02-28T14:55:26;0.20;;;0.10;;
62709;SDS011;48770;51.624;5.886;2023-02-28T14:57:55;0.15;;;0.10;;
62709;SDS011;48770;51.624;5.886;2023-02-28T15:00:24;0.13;;;0.10;;
62709;SDS011;48770;51.624;5.886;2023-02-28T15:02:51;0.10;;;0.05;;
62709;SDS011;48770;51.624;5.886;2023-02-28T15:07:49;0.10;;;0.10;;
62709;SDS011;48770;51.624;5.886;2023-02-28T15:10:27;0.10;;;0.10;;
62709;SDS011;48770;51.624;5.886;2023-02-28T15:12:56;0.10;;;0.10;;
62709;SDS011;48770;51.624;5.886;2023-02-28T15:15:36;0.13;;;0.10;;
62709;SDS011;48770;51.624;5.886;2023-02-28T15:18:07;0.10;;;0.00;;
62709;SDS011;48770;51.624;5.886;2023-02-28T15:20:40;0.13;;;0.13;;
62709;SDS011;48770;51.624;5.886;2023-02-28T15:23:09;0.00;;;0.00;;
62709;SDS011;48770;51.624;5.886;2023-02-28T15:25:35;1.23;;;0.10;;
62709;SDS011;48770;51.624;5.886;2023-02-28T15:28:01;0.20;;;0.00;;
62709;SDS011;48770;51.624;5.886;2023-02-28T15:30:30;0.57;;;0.10;;
62709;SDS011;48770;51.624;5.886;2023-02-28T15:35:42;0.20;;;0.13;;
62709;SDS011;48770;51.624;5.886;2023-02-28T15:40:52;0.17;;;0.13;;
62709;SDS011;48770;51.624;5.886;2023-02-28T15:48:27;0.20;;;0.10;;
62709;SDS011;48770;51.624;5.886;2023-02-28T15:51:02;0.05;;;0.00;;
62709;SDS011;48770;51.624;5.886;2023-02-28T15:53:37;0.55;;;0.10;;
62709;SDS011;48770;51.624;5.886;2023-02-28T15:56:25;0.10;;;0.10;;
62709;SDS011;48770;51.624;5.886;2023-02-28T15:58:53;0.10;;;0.10;;
62709;SDS011;48770;51.624;5.886;2023-02-28T16:01:23;0.10;;;0.00;;
62709;SDS011;48770;51.624;5.886;2023-02-28T16:03:51;0.03;;;0.03;;
62709;SDS011;48770;51.624;5.886;2023-02-28T16:06:22;0.10;;;0.00;;
62709;SDS011;48770;51.624;5.886;2023-02-28T16:08:51;0.13;;;0.00;;
62709;SDS011;48770;51.624;5.886;2023-02-28T16:11:18;0.10;;;0.10;;
62709;SDS011;48770;51.624;5.886;2023-02-28T16:13:45;2.70;;;0.30;;
62709;SDS011;48770;51.624;5.886;2023-02-28T16:16:21;0.28;;;0.10;;
62709;SDS011;48770;51.624;5.886;2023-02-28T16:18:49;0.75;;;0.20;;
62709;SDS011;48770;51.624;5.886;2023-02-28T16:21:15;0.28;;;0.10;;
62709;SDS011;48770;51.624;5.886;2023-02-28T16:23:41;0.60;;;0.20;;
62709;SDS011;48770;51.624;5.886;2023-02-28T16:26:06;0.52;;;0.10;;
62709;SDS011;48770;51.624;5.886;2023-02-28T16:28:38;0.38;;;0.20;;
62709;SDS011;48770;51.624;5.886;2023-02-28T16:31:04;0.50;;;0.20;;
62709;SDS011;48770;51.624;5.886;2023-02-28T16:33:31;0.35;;;0.17;;
62709;SDS011;48770;51.624;5.886;2023-02-28T16:35:57;0.28;;;0.20;;
62709;SDS011;48770;51.624;5.886;2023-02-28T16:38:23;0.30;;;0.17;;
62709;SDS011;48770;51.624;5.886;2023-02-28T16:40:49;1.05;;;0.20;;
62709;SDS011;48770;51.624;5.886;2023-02-28T16:43:17;0.43;;;0.20;;
62709;SDS011;48770;51.624;5.886;2023-02-28T16:45:46;0.47;;;0.30;;
62709;SDS011;48770;51.624;5.886;2023-02-28T16:48:12;0.77;;;0.10;;
62709;SDS011;48770;51.624;5.886;2023-02-28T16:50:39;0.20;;;0.15;;
62709;SDS011;48770;51.624;5.886;2023-02-28T16:53:05;0.15;;;0.10;;
62709;SDS011;48770;51.624;5.886;2023-02-28T16:55:30;0.50;;;0.13;;
62709;SDS011;48770;51.624;5.886;2023-02-28T16:57:56;0.60;;;0.15;;
62709;SDS011;48770;51.624;5.886;2023-02-28T17:00:24;0.25;;;0.17;;
62709;SDS011;48770;51.624;5.886;2023-02-28T17:02:52;0.40;;;0.20;;
62709;SDS011;48770;51.624;5.886;2023-02-28T17:05:17;0.20;;;0.17;;
62709;SDS011;48770;51.624;5.886;2023-02-28T17:07:43;0.77;;;0.15;;
62709;SDS011;48770;51.624;5.886;2023-02-28T17:10:23;0.75;;;0.10;;
62709;SDS011;48770;51.624;5.886;2023-02-28T17:12:50;1.67;;;0.15;;
62709;SDS011;48770;51.624;5.886;2023-02-28T17:15:16;0.20;;;0.10;;
62709;SDS011;48770;51.624;5.886;2023-02-28T17:17:43;0.10;;;0.10;;
62709;SDS011;48770;51.624;5.886;2023-02-28T17:20:13;1.00;;;0.13;;
62709;SDS011;48770;51.624;5.886;2023-02-28T17:22:40;0.65;;;0.10;;
62709;SDS011;48770;51.624;5.886;2023-02-28T17:25:06;1.08;;;0.20;;
62709;SDS011;48770;51.624;5.886;2023-02-28T17:27:32;0.20;;;0.10;;
62709;SDS011;48770;51.624;5.886;2023-02-28T17:29:57;0.50;;;0.10;;
62709;SDS011;48770;51.624;5.886;2023-02-28T17:32:24;0.32;;;0.10;;
62709;SDS011;48770;51.624;5.886;2023-02-28T17:34:50;0.20;;;0.20;;
62709;SDS011;48770;51.624;5.886;2023-02-28T17:37:16;0.22;;;0.13;;
62709;SDS011;48770;51.624;5.886;2023-02-28T17:39:41;0.30;;;0.10;;
62709;SDS011;48770;51.624;5.886;2023-02-28T17:42:06;0.20;;;0.10;;
62709;SDS011;48770;51.624;5.886;2023-02-28T17:44:32;1.35;;;0.20;;
62709;SDS011;48770;51.624;5.886;2023-02-28T17:46:58;0.63;;;0.30;;